sensor_id;sensor_type;location;lat;lon;timestamp;P1;durP1;ratioP1;P2;durP2;ratioP2
82873;SDS011;72647;51.622;7.540;2023-11-18T00:01:20;56.40;;;19.27;;
82873;SDS011;72647;51.622;7.540;2023-11-18T00:03:21;57.97;;;19.83;;
82873;SDS011;72647;51.622;7.540;2023-11-18T00:05:21;56.67;;;19.23;;
82873;SDS011;72647;51.622;7.540;2023-11-18T00:07:21;59.10;;;19.87;;
82873;SDS011;72647;51.622;7.540;2023-11-18T00:09:22;55.70;;;18.03;;
82873;SDS011;72647;51.622;7.540;2023-11-18T00:11:24;59.95;;;20.42;;
82873;SDS011;72647;51.622;7.540;2023-11-18T00:13:25;58.20;;;19.53;;
82873;SDS011;72647;51.622;7.540;2023-11-18T00:15:26;55.55;;;19.48;;
82873;SDS011;72647;51.622;7.540;2023-11-18T00:17:27;60.90;;;20.08;;
82873;SDS011;72647;51.622;7.540;2023-11-18T00:19:28;63.78;;;20.45;;
82873;SDS011;72647;51.622;7.540;2023-11-18T00:21:28;63.95;;;22.55;;
82873;SDS011;72647;51.622;7.540;2023-11-18T00:23:28;67.13;;;21.33;;
82873;SDS011;72647;51.622;7.540;2023-11-18T00:25:29;58.35;;;19.50;;
82873;SDS011;72647;51.622;7.540;2023-11-18T00:27:29;57.63;;;19.25;;
82873;SDS011;72647;51.622;7.540;2023-11-18T00:29:30;60.85;;;20.67;;
82873;SDS011;72647;51.622;7.540;2023-11-18T00:31:30;57.73;;;19.00;;
82873;SDS011;72647;51.622;7.540;2023-11-18T00:33:30;56.43;;;18.97;;
82873;SDS011;72647;51.622;7.540;2023-11-18T00:35:30;60.13;;;18.70;;
82873;SDS011;72647;51.622;7.540;2023-11-18T00:37:32;54.33;;;17.65;;
82873;SDS011;72647;51.622;7.540;2023-11-18T00:39:33;60.65;;;18.90;;
82873;SDS011;72647;51.622;7.540;2023-11-18T00:41:33;59.15;;;18.45;;
82873;SDS011;72647;51.622;7.540;2023-11-18T00:43:33;60.90;;;20.42;;
82873;SDS011;72647;51.622;7.540;2023-11-18T00:45:34;61.25;;;19.73;;
82873;SDS011;72647;51.622;7.540;2023-11-18T00:47:35;53.47;;;18.80;;
82873;SDS011;72647;51.622;7.540;2023-11-18T00:49:35;54.83;;;17.75;;
82873;SDS011;72647;51.622;7.540;2023-11-18T00:51:36;58.45;;;17.58;;
82873;SDS011;72647;51.622;7.540;2023-11-18T00:53:37;53.25;;;18.23;;
82873;SDS011;72647;51.622;7.540;2023-11-18T00:55:37;58.50;;;18.77;;
82873;SDS011;72647;51.622;7.540;2023-11-18T00:57:37;55.85;;;17.92;;
82873;SDS011;72647;51.622;7.540;2023-11-18T00:59:41;50.55;;;17.30;;
82873;SDS011;72647;51.622;7.540;2023-11-18T01:01:42;49.83;;;16.70;;
82873;SDS011;72647;51.622;7.540;2023-11-18T01:03:42;51.25;;;18.98;;
82873;SDS011;72647;51.622;7.540;2023-11-18T01:05:42;53.20;;;17.75;;
82873;SDS011;72647;51.622;7.540;2023-11-18T01:09:44;45.40;;;14.67;;
82873;SDS011;72647;51.622;7.540;2023-11-18T01:11:45;46.88;;;15.90;;
82873;SDS011;72647;51.622;7.540;2023-11-18T01:13:46;42.42;;;15.80;;
82873;SDS011;72647;51.622;7.540;2023-11-18T01:15:46;44.63;;;16.10;;
82873;SDS011;72647;51.622;7.540;2023-11-18T01:17:46;46.17;;;16.23;;
82873;SDS011;72647;51.622;7.540;2023-11-18T01:19:46;49.73;;;17.43;;
82873;SDS011;72647;51.622;7.540;2023-11-18T01:21:47;46.95;;;15.77;;
82873;SDS011;72647;51.622;7.540;2023-11-18T01:23:47;54.40;;;17.17;;
82873;SDS011;72647;51.622;7.540;2023-11-18T01:27:51;43.13;;;15.05;;
82873;SDS011;72647;51.622;7.540;2023-11-18T01:29:51;38.70;;;13.40;;
82873;SDS011;72647;51.622;7.540;2023-11-18T01:31:51;48.03;;;17.00;;
82873;SDS011;72647;51.622;7.540;2023-11-18T01:33:52;44.38;;;16.77;;
82873;SDS011;72647;51.622;7.540;2023-11-18T01:35:55;49.45;;;17.00;;
82873;SDS011;72647;51.622;7.540;2023-11-18T01:37:55;45.83;;;15.93;;
82873;SDS011;72647;51.622;7.540;2023-11-18T01:39:55;45.55;;;15.50;;
82873;SDS011;72647;51.622;7.540;2023-11-18T01:41:56;42.63;;;17.10;;
82873;SDS011;72647;51.622;7.540;2023-11-18T01:44:00;50.30;;;15.48;;
82873;SDS011;72647;51.622;7.540;2023-11-18T01:46:04;41.70;;;15.60;;
82873;SDS011;72647;51.622;7.540;2023-11-18T01:48:05;40.15;;;15.55;;
82873;SDS011;72647;51.622;7.540;2023-11-18T01:50:06;45.50;;;16.60;;
82873;SDS011;72647;51.622;7.540;2023-11-18T01:52:07;45.90;;;15.93;;
82873;SDS011;72647;51.622;7.540;2023-11-18T01:54:10;52.05;;;16.50;;
82873;SDS011;72647;51.622;7.540;2023-11-18T01:56:15;47.45;;;14.90;;
82873;SDS011;72647;51.622;7.540;2023-11-18T01:58:15;44.67;;;15.88;;
82873;SDS011;72647;51.622;7.540;2023-11-18T02:00:19;55.75;;;15.70;;
82873;SDS011;72647;51.622;7.540;2023-11-18T02:02:20;44.25;;;17.55;;
82873;SDS011;72647;51.622;7.540;2023-11-18T02:04:23;53.60;;;16.42;;
82873;SDS011;72647;51.622;7.540;2023-11-18T02:06:24;53.25;;;16.25;;
82873;SDS011;72647;51.622;7.540;2023-11-18T02:08:25;47.03;;;15.10;;
82873;SDS011;72647;51.622;7.540;2023-11-18T02:10:26;49.95;;;14.50;;
82873;SDS011;72647;51.622;7.540;2023-11-18T02:14:35;53.13;;;15.00;;
82873;SDS011;72647;51.622;7.540;2023-11-18T02:16:39;51.65;;;16.20;;
82873;SDS011;72647;51.622;7.540;2023-11-18T02:18:40;55.15;;;18.33;;
82873;SDS011;72647;51.622;7.540;2023-11-18T02:20:42;59.60;;;17.52;;
82873;SDS011;72647;51.622;7.540;2023-11-18T02:22:43;49.83;;;16.40;;
82873;SDS011;72647;51.622;7.540;2023-11-18T02:24:43;50.05;;;16.38;;
82873;SDS011;72647;51.622;7.540;2023-11-18T02:26:44;51.80;;;16.35;;
82873;SDS011;72647;51.622;7.540;2023-11-18T02:28:45;46.92;;;14.95;;
82873;SDS011;72647;51.622;7.540;2023-11-18T02:30:46;47.93;;;15.83;;
82873;SDS011;72647;51.622;7.540;2023-11-18T02:32:58;47.55;;;15.90;;
82873;SDS011;72647;51.622;7.540;2023-11-18T02:35:09;37.38;;;13.55;;
82873;SDS011;72647;51.622;7.540;2023-11-18T02:37:10;53.40;;;15.63;;
82873;SDS011;72647;51.622;7.540;2023-11-18T02:39:12;48.40;;;15.82;;
82873;SDS011;72647;51.622;7.540;2023-11-18T02:41:17;58.83;;;16.40;;
82873;SDS011;72647;51.622;7.540;2023-11-18T02:43:18;47.15;;;15.23;;
82873;SDS011;72647;51.622;7.540;2023-11-18T02:45:19;52.72;;;15.65;;
82873;SDS011;72647;51.622;7.540;2023-11-18T02:47:20;47.90;;;15.48;;
82873;SDS011;72647;51.622;7.540;2023-11-18T02:49:21;50.83;;;16.35;;
82873;SDS011;72647;51.622;7.540;2023-11-18T02:51:22;48.17;;;15.27;;
82873;SDS011;72647;51.622;7.540;2023-11-18T02:53:22;61.97;;;16.27;;
82873;SDS011;72647;51.622;7.540;2023-11-18T02:55:22;53.88;;;16.38;;
82873;SDS011;72647;51.622;7.540;2023-11-18T02:57:26;62.03;;;16.23;;
82873;SDS011;72647;51.622;7.540;2023-11-18T02:59:26;56.88;;;16.17;;
82873;SDS011;72647;51.622;7.540;2023-11-18T03:01:30;48.63;;;16.60;;
82873;SDS011;72647;51.622;7.540;2023-11-18T03:03:30;46.53;;;15.60;;
82873;SDS011;72647;51.622;7.540;2023-11-18T03:05:31;59.35;;;16.08;;
82873;SDS011;72647;51.622;7.540;2023-11-18T03:07:31;49.27;;;16.30;;
82873;SDS011;72647;51.622;7.540;2023-11-18T03:09:32;49.97;;;15.17;;
82873;SDS011;72647;51.622;7.540;2023-11-18T03:11:34;50.47;;;14.98;;
82873;SDS011;72647;51.622;7.540;2023-11-18T03:13:35;53.47;;;16.53;;
82873;SDS011;72647;51.622;7.540;2023-11-18T03:15:35;50.42;;;16.40;;
82873;SDS011;72647;51.622;7.540;2023-11-18T03:17:35;52.75;;;14.50;;
82873;SDS011;72647;51.622;7.540;2023-11-18T03:19:36;54.50;;;14.87;;
82873;SDS011;72647;51.622;7.540;2023-11-18T03:21:36;46.13;;;16.15;;
82873;SDS011;72647;51.622;7.540;2023-11-18T03:23:36;47.45;;;14.20;;
82873;SDS011;72647;51.622;7.540;2023-11-18T03:25:37;44.57;;;14.93;;
82873;SDS011;72647;51.622;7.540;2023-11-18T03:27:38;43.95;;;15.35;;
82873;SDS011;72647;51.622;7.540;2023-11-18T03:29:38;44.25;;;14.30;;
82873;SDS011;72647;51.622;7.540;2023-11-18T03:33:41;39.50;;;11.93;;
82873;SDS011;72647;51.622;7.540;2023-11-18T03:35:41;33.90;;;12.65;;
82873;SDS011;72647;51.622;7.540;2023-11-18T03:37:42;38.78;;;13.18;;
82873;SDS011;72647;51.622;7.540;2023-11-18T03:39:42;38.17;;;12.98;;
82873;SDS011;72647;51.622;7.540;2023-11-18T03:41:42;42.93;;;13.13;;
82873;SDS011;72647;51.622;7.540;2023-11-18T03:43:46;45.03;;;13.95;;
82873;SDS011;72647;51.622;7.540;2023-11-18T03:45:48;43.15;;;13.38;;
82873;SDS011;72647;51.622;7.540;2023-11-18T03:47:48;44.80;;;13.68;;
82873;SDS011;72647;51.622;7.540;2023-11-18T03:49:51;47.80;;;13.63;;
82873;SDS011;72647;51.622;7.540;2023-11-18T03:51:51;45.58;;;13.50;;
82873;SDS011;72647;51.622;7.540;2023-11-18T03:53:51;45.03;;;15.07;;
82873;SDS011;72647;51.622;7.540;2023-11-18T03:55:51;51.00;;;13.40;;
82873;SDS011;72647;51.622;7.540;2023-11-18T03:57:52;46.73;;;14.33;;
82873;SDS011;72647;51.622;7.540;2023-11-18T03:59:52;50.20;;;13.98;;
82873;SDS011;72647;51.622;7.540;2023-11-18T04:01:52;38.17;;;14.13;;
82873;SDS011;72647;51.622;7.540;2023-11-18T04:03:53;48.40;;;13.75;;
82873;SDS011;72647;51.622;7.540;2023-11-18T04:05:53;46.80;;;14.55;;
82873;SDS011;72647;51.622;7.540;2023-11-18T04:07:53;46.43;;;12.83;;
82873;SDS011;72647;51.622;7.540;2023-11-18T04:09:53;47.20;;;13.07;;
82873;SDS011;72647;51.622;7.540;2023-11-18T04:11:54;39.87;;;13.20;;
82873;SDS011;72647;51.622;7.540;2023-11-18T04:13:54;39.90;;;12.77;;
82873;SDS011;72647;51.622;7.540;2023-11-18T04:15:54;36.87;;;12.53;;
82873;SDS011;72647;51.622;7.540;2023-11-18T04:17:55;56.40;;;14.25;;
82873;SDS011;72647;51.622;7.540;2023-11-18T04:19:55;52.00;;;14.45;;
82873;SDS011;72647;51.622;7.540;2023-11-18T04:21:56;52.70;;;14.20;;
82873;SDS011;72647;51.622;7.540;2023-11-18T04:23:56;41.50;;;13.53;;
82873;SDS011;72647;51.622;7.540;2023-11-18T04:25:56;46.45;;;12.65;;
82873;SDS011;72647;51.622;7.540;2023-11-18T04:27:56;46.53;;;14.27;;
82873;SDS011;72647;51.622;7.540;2023-11-18T04:29:57;50.17;;;13.65;;
82873;SDS011;72647;51.622;7.540;2023-11-18T04:31:57;39.80;;;13.10;;
82873;SDS011;72647;51.622;7.540;2023-11-18T04:33:59;44.85;;;13.43;;
82873;SDS011;72647;51.622;7.540;2023-11-18T04:36:00;38.53;;;12.73;;
82873;SDS011;72647;51.622;7.540;2023-11-18T04:38:00;43.72;;;13.48;;
82873;SDS011;72647;51.622;7.540;2023-11-18T04:40:01;40.60;;;12.53;;
82873;SDS011;72647;51.622;7.540;2023-11-18T04:42:01;41.65;;;13.05;;
82873;SDS011;72647;51.622;7.540;2023-11-18T04:44:02;45.85;;;12.10;;
82873;SDS011;72647;51.622;7.540;2023-11-18T04:46:03;49.17;;;13.20;;
82873;SDS011;72647;51.622;7.540;2023-11-18T04:48:05;44.47;;;12.55;;
82873;SDS011;72647;51.622;7.540;2023-11-18T04:50:06;57.85;;;15.38;;
82873;SDS011;72647;51.622;7.540;2023-11-18T04:52:07;54.83;;;15.00;;
82873;SDS011;72647;51.622;7.540;2023-11-18T04:54:08;42.67;;;13.60;;
82873;SDS011;72647;51.622;7.540;2023-11-18T04:56:08;44.15;;;13.07;;
82873;SDS011;72647;51.622;7.540;2023-11-18T04:58:10;38.58;;;12.63;;
82873;SDS011;72647;51.622;7.540;2023-11-18T05:00:10;45.75;;;13.45;;
82873;SDS011;72647;51.622;7.540;2023-11-18T05:02:11;52.45;;;13.07;;
82873;SDS011;72647;51.622;7.540;2023-11-18T05:04:11;42.83;;;13.63;;
82873;SDS011;72647;51.622;7.540;2023-11-18T05:06:11;43.55;;;12.75;;
82873;SDS011;72647;51.622;7.540;2023-11-18T05:08:20;43.47;;;12.53;;
82873;SDS011;72647;51.622;7.540;2023-11-18T05:10:21;35.65;;;12.10;;
82873;SDS011;72647;51.622;7.540;2023-11-18T05:12:21;43.17;;;12.50;;
82873;SDS011;72647;51.622;7.540;2023-11-18T05:14:22;37.63;;;12.95;;
82873;SDS011;72647;51.622;7.540;2023-11-18T05:16:22;33.92;;;11.65;;
82873;SDS011;72647;51.622;7.540;2023-11-18T05:18:22;34.27;;;11.10;;
82873;SDS011;72647;51.622;7.540;2023-11-18T05:20:23;34.55;;;11.82;;
82873;SDS011;72647;51.622;7.540;2023-11-18T05:22:23;32.90;;;12.10;;
82873;SDS011;72647;51.622;7.540;2023-11-18T05:24:23;33.65;;;10.70;;
82873;SDS011;72647;51.622;7.540;2023-11-18T05:26:23;33.43;;;11.00;;
82873;SDS011;72647;51.622;7.540;2023-11-18T05:28:24;30.45;;;10.82;;
82873;SDS011;72647;51.622;7.540;2023-11-18T05:30:24;30.35;;;10.73;;
82873;SDS011;72647;51.622;7.540;2023-11-18T05:32:28;31.08;;;11.60;;
82873;SDS011;72647;51.622;7.540;2023-11-18T05:34:30;31.17;;;11.50;;
82873;SDS011;72647;51.622;7.540;2023-11-18T05:36:30;31.87;;;11.03;;
82873;SDS011;72647;51.622;7.540;2023-11-18T05:38:37;29.10;;;10.93;;
82873;SDS011;72647;51.622;7.540;2023-11-18T05:40:37;33.72;;;11.43;;
82873;SDS011;72647;51.622;7.540;2023-11-18T05:42:42;31.58;;;10.07;;
82873;SDS011;72647;51.622;7.540;2023-11-18T05:44:46;29.33;;;12.00;;
82873;SDS011;72647;51.622;7.540;2023-11-18T05:46:46;32.70;;;11.47;;
82873;SDS011;72647;51.622;7.540;2023-11-18T05:48:47;37.20;;;10.65;;
82873;SDS011;72647;51.622;7.540;2023-11-18T05:50:47;30.33;;;11.07;;
82873;SDS011;72647;51.622;7.540;2023-11-18T05:52:47;34.30;;;10.50;;
82873;SDS011;72647;51.622;7.540;2023-11-18T05:54:48;32.92;;;11.93;;
82873;SDS011;72647;51.622;7.540;2023-11-18T05:56:48;32.35;;;10.82;;
82873;SDS011;72647;51.622;7.540;2023-11-18T05:58:48;33.73;;;12.03;;
82873;SDS011;72647;51.622;7.540;2023-11-18T06:00:49;33.25;;;12.20;;
82873;SDS011;72647;51.622;7.540;2023-11-18T06:02:49;33.38;;;11.05;;
82873;SDS011;72647;51.622;7.540;2023-11-18T06:04:50;31.17;;;12.38;;
82873;SDS011;72647;51.622;7.540;2023-11-18T06:06:51;30.35;;;11.50;;
82873;SDS011;72647;51.622;7.540;2023-11-18T06:08:52;32.65;;;11.43;;
82873;SDS011;72647;51.622;7.540;2023-11-18T06:10:53;29.48;;;10.65;;
82873;SDS011;72647;51.622;7.540;2023-11-18T06:12:56;30.33;;;10.63;;
82873;SDS011;72647;51.622;7.540;2023-11-18T06:14:58;30.98;;;10.55;;
82873;SDS011;72647;51.622;7.540;2023-11-18T06:16:58;25.23;;;10.68;;
82873;SDS011;72647;51.622;7.540;2023-11-18T06:18:59;28.85;;;10.48;;
82873;SDS011;72647;51.622;7.540;2023-11-18T06:20:59;26.43;;;11.10;;
82873;SDS011;72647;51.622;7.540;2023-11-18T06:22:59;28.73;;;11.03;;
82873;SDS011;72647;51.622;7.540;2023-11-18T06:25:00;25.75;;;10.32;;
82873;SDS011;72647;51.622;7.540;2023-11-18T06:27:00;29.80;;;10.23;;
82873;SDS011;72647;51.622;7.540;2023-11-18T06:29:01;26.43;;;10.80;;
82873;SDS011;72647;51.622;7.540;2023-11-18T06:31:01;32.78;;;11.27;;
82873;SDS011;72647;51.622;7.540;2023-11-18T06:33:02;27.65;;;11.82;;
82873;SDS011;72647;51.622;7.540;2023-11-18T06:35:02;32.50;;;11.57;;
82873;SDS011;72647;51.622;7.540;2023-11-18T06:37:05;27.10;;;11.20;;
82873;SDS011;72647;51.622;7.540;2023-11-18T06:41:08;27.38;;;9.68;;
82873;SDS011;72647;51.622;7.540;2023-11-18T06:43:10;28.17;;;10.75;;
82873;SDS011;72647;51.622;7.540;2023-11-18T06:45:11;26.50;;;10.40;;
82873;SDS011;72647;51.622;7.540;2023-11-18T06:47:12;25.45;;;10.32;;
82873;SDS011;72647;51.622;7.540;2023-11-18T06:49:12;28.38;;;10.70;;
82873;SDS011;72647;51.622;7.540;2023-11-18T06:51:15;26.45;;;10.52;;
82873;SDS011;72647;51.622;7.540;2023-11-18T06:53:16;34.92;;;11.00;;
82873;SDS011;72647;51.622;7.540;2023-11-18T06:55:16;26.85;;;10.35;;
82873;SDS011;72647;51.622;7.540;2023-11-18T06:57:16;27.57;;;11.13;;
82873;SDS011;72647;51.622;7.540;2023-11-18T06:59:16;33.50;;;10.97;;
82873;SDS011;72647;51.622;7.540;2023-11-18T07:01:17;41.45;;;13.70;;
82873;SDS011;72647;51.622;7.540;2023-11-18T07:03:18;37.38;;;13.00;;
82873;SDS011;72647;51.622;7.540;2023-11-18T07:05:18;24.13;;;11.60;;
82873;SDS011;72647;51.622;7.540;2023-11-18T07:07:20;32.58;;;12.38;;
82873;SDS011;72647;51.622;7.540;2023-11-18T07:09:21;34.28;;;13.15;;
82873;SDS011;72647;51.622;7.540;2023-11-18T07:11:23;27.35;;;11.93;;
82873;SDS011;72647;51.622;7.540;2023-11-18T07:13:23;28.75;;;13.20;;
82873;SDS011;72647;51.622;7.540;2023-11-18T07:15:24;29.67;;;12.82;;
82873;SDS011;72647;51.622;7.540;2023-11-18T07:17:24;26.92;;;11.00;;
82873;SDS011;72647;51.622;7.540;2023-11-18T07:19:25;24.77;;;10.63;;
82873;SDS011;72647;51.622;7.540;2023-11-18T07:21:25;26.17;;;11.03;;
82873;SDS011;72647;51.622;7.540;2023-11-18T07:23:25;29.30;;;11.13;;
82873;SDS011;72647;51.622;7.540;2023-11-18T07:25:26;21.67;;;10.07;;
82873;SDS011;72647;51.622;7.540;2023-11-18T07:27:27;25.13;;;11.38;;
82873;SDS011;72647;51.622;7.540;2023-11-18T07:29:27;24.83;;;10.23;;
82873;SDS011;72647;51.622;7.540;2023-11-18T07:31:27;22.38;;;10.30;;
82873;SDS011;72647;51.622;7.540;2023-11-18T07:33:29;24.98;;;11.07;;
82873;SDS011;72647;51.622;7.540;2023-11-18T07:35:29;27.17;;;12.38;;
82873;SDS011;72647;51.622;7.540;2023-11-18T07:37:29;25.85;;;11.85;;
82873;SDS011;72647;51.622;7.540;2023-11-18T07:39:32;33.55;;;13.20;;
82873;SDS011;72647;51.622;7.540;2023-11-18T07:41:43;31.38;;;14.20;;
82873;SDS011;72647;51.622;7.540;2023-11-18T07:43:44;31.48;;;14.85;;
82873;SDS011;72647;51.622;7.540;2023-11-18T07:45:44;30.42;;;12.23;;
82873;SDS011;72647;51.622;7.540;2023-11-18T07:47:47;21.98;;;10.57;;
82873;SDS011;72647;51.622;7.540;2023-11-18T07:49:47;22.07;;;10.57;;
82873;SDS011;72647;51.622;7.540;2023-11-18T07:51:48;22.88;;;11.25;;
82873;SDS011;72647;51.622;7.540;2023-11-18T07:53:48;22.13;;;10.37;;
82873;SDS011;72647;51.622;7.540;2023-11-18T07:55:49;19.75;;;9.02;;
82873;SDS011;72647;51.622;7.540;2023-11-18T07:57:50;21.00;;;10.27;;
82873;SDS011;72647;51.622;7.540;2023-11-18T07:59:52;23.17;;;11.47;;
82873;SDS011;72647;51.622;7.540;2023-11-18T08:01:53;22.20;;;12.93;;
82873;SDS011;72647;51.622;7.540;2023-11-18T08:03:54;25.80;;;12.88;;
82873;SDS011;72647;51.622;7.540;2023-11-18T08:05:54;25.03;;;11.60;;
82873;SDS011;72647;51.622;7.540;2023-11-18T08:07:54;21.30;;;10.60;;
82873;SDS011;72647;51.622;7.540;2023-11-18T08:09:55;20.55;;;10.27;;
82873;SDS011;72647;51.622;7.540;2023-11-18T08:11:55;17.87;;;9.57;;
82873;SDS011;72647;51.622;7.540;2023-11-18T08:13:55;18.80;;;9.65;;
82873;SDS011;72647;51.622;7.540;2023-11-18T08:15:56;16.40;;;8.35;;
82873;SDS011;72647;51.622;7.540;2023-11-18T08:17:58;19.23;;;8.50;;
82873;SDS011;72647;51.622;7.540;2023-11-18T08:19:59;17.20;;;8.20;;
82873;SDS011;72647;51.622;7.540;2023-11-18T08:21:59;20.05;;;10.05;;
82873;SDS011;72647;51.622;7.540;2023-11-18T08:24:00;18.33;;;9.73;;
82873;SDS011;72647;51.622;7.540;2023-11-18T08:28:02;17.10;;;9.20;;
82873;SDS011;72647;51.622;7.540;2023-11-18T08:30:03;17.63;;;8.82;;
82873;SDS011;72647;51.622;7.540;2023-11-18T08:32:11;20.77;;;10.70;;
82873;SDS011;72647;51.622;7.540;2023-11-18T08:34:12;20.75;;;9.82;;
82873;SDS011;72647;51.622;7.540;2023-11-18T08:36:12;18.98;;;9.35;;
82873;SDS011;72647;51.622;7.540;2023-11-18T08:38:13;23.02;;;10.43;;
82873;SDS011;72647;51.622;7.540;2023-11-18T08:40:13;21.10;;;11.90;;
82873;SDS011;72647;51.622;7.540;2023-11-18T08:42:20;25.10;;;11.63;;
82873;SDS011;72647;51.622;7.540;2023-11-18T08:44:20;18.27;;;10.68;;
82873;SDS011;72647;51.622;7.540;2023-11-18T08:46:20;20.97;;;10.50;;
82873;SDS011;72647;51.622;7.540;2023-11-18T08:48:21;22.42;;;11.57;;
82873;SDS011;72647;51.622;7.540;2023-11-18T08:50:23;23.20;;;11.93;;
82873;SDS011;72647;51.622;7.540;2023-11-18T08:52:24;20.95;;;10.93;;
82873;SDS011;72647;51.622;7.540;2023-11-18T08:54:25;19.20;;;9.90;;
82873;SDS011;72647;51.622;7.540;2023-11-18T08:56:38;25.50;;;13.00;;
82873;SDS011;72647;51.622;7.540;2023-11-18T08:58:41;19.08;;;11.15;;
82873;SDS011;72647;51.622;7.540;2023-11-18T09:02:45;21.00;;;9.70;;
82873;SDS011;72647;51.622;7.540;2023-11-18T09:04:45;21.40;;;9.88;;
82873;SDS011;72647;51.622;7.540;2023-11-18T09:06:46;22.50;;;11.05;;
82873;SDS011;72647;51.622;7.540;2023-11-18T09:08:48;21.20;;;10.32;;
82873;SDS011;72647;51.622;7.540;2023-11-18T09:10:54;21.90;;;11.30;;
82873;SDS011;72647;51.622;7.540;2023-11-18T09:12:54;22.87;;;10.93;;
82873;SDS011;72647;51.622;7.540;2023-11-18T09:14:55;22.95;;;9.95;;
82873;SDS011;72647;51.622;7.540;2023-11-18T09:16:55;24.13;;;11.40;;
82873;SDS011;72647;51.622;7.540;2023-11-18T09:18:58;21.42;;;12.45;;
82873;SDS011;72647;51.622;7.540;2023-11-18T09:21:02;22.23;;;11.10;;
82873;SDS011;72647;51.622;7.540;2023-11-18T09:23:03;20.20;;;10.55;;
82873;SDS011;72647;51.622;7.540;2023-11-18T09:25:05;19.60;;;10.85;;
82873;SDS011;72647;51.622;7.540;2023-11-18T09:27:09;20.20;;;10.30;;
82873;SDS011;72647;51.622;7.540;2023-11-18T09:29:09;20.80;;;11.50;;
82873;SDS011;72647;51.622;7.540;2023-11-18T09:31:11;23.58;;;11.88;;
82873;SDS011;72647;51.622;7.540;2023-11-18T09:33:11;27.23;;;11.93;;
82873;SDS011;72647;51.622;7.540;2023-11-18T09:35:14;24.42;;;12.85;;
82873;SDS011;72647;51.622;7.540;2023-11-18T09:37:14;22.08;;;13.35;;
82873;SDS011;72647;51.622;7.540;2023-11-18T09:39:15;22.02;;;11.65;;
82873;SDS011;72647;51.622;7.540;2023-11-18T09:41:24;22.92;;;11.68;;
82873;SDS011;72647;51.622;7.540;2023-11-18T09:43:26;20.77;;;10.70;;
82873;SDS011;72647;51.622;7.540;2023-11-18T09:45:27;20.75;;;11.23;;
82873;SDS011;72647;51.622;7.540;2023-11-18T09:47:28;21.10;;;10.75;;
82873;SDS011;72647;51.622;7.540;2023-11-18T09:49:28;19.48;;;10.45;;
82873;SDS011;72647;51.622;7.540;2023-11-18T09:51:36;18.58;;;9.85;;
82873;SDS011;72647;51.622;7.540;2023-11-18T09:53:38;18.85;;;9.23;;
82873;SDS011;72647;51.622;7.540;2023-11-18T09:55:45;18.35;;;8.77;;
82873;SDS011;72647;51.622;7.540;2023-11-18T09:57:49;15.98;;;8.63;;
82873;SDS011;72647;51.622;7.540;2023-11-18T10:00:04;15.35;;;7.05;;
82873;SDS011;72647;51.622;7.540;2023-11-18T10:02:23;17.73;;;9.48;;
82873;SDS011;72647;51.622;7.540;2023-11-18T10:04:24;16.55;;;7.88;;
82873;SDS011;72647;51.622;7.540;2023-11-18T10:06:27;16.67;;;7.75;;
82873;SDS011;72647;51.622;7.540;2023-11-18T10:08:28;15.48;;;8.95;;
82873;SDS011;72647;51.622;7.540;2023-11-18T10:10:30;15.18;;;8.13;;
82873;SDS011;72647;51.622;7.540;2023-11-18T10:12:36;17.60;;;9.38;;
82873;SDS011;72647;51.622;7.540;2023-11-18T10:14:41;14.02;;;7.55;;
82873;SDS011;72647;51.622;7.540;2023-11-18T10:16:43;16.75;;;10.65;;
82873;SDS011;72647;51.622;7.540;2023-11-18T10:18:46;14.60;;;8.20;;
82873;SDS011;72647;51.622;7.540;2023-11-18T10:20:49;20.75;;;7.72;;
82873;SDS011;72647;51.622;7.540;2023-11-18T10:23:06;13.95;;;7.70;;
82873;SDS011;72647;51.622;7.540;2023-11-18T10:25:10;14.05;;;7.05;;
82873;SDS011;72647;51.622;7.540;2023-11-18T10:27:14;13.63;;;7.68;;
82873;SDS011;72647;51.622;7.540;2023-11-18T10:29:14;13.90;;;6.97;;
82873;SDS011;72647;51.622;7.540;2023-11-18T10:31:17;12.30;;;6.88;;
82873;SDS011;72647;51.622;7.540;2023-11-18T10:33:18;13.93;;;6.93;;
82873;SDS011;72647;51.622;7.540;2023-11-18T10:35:19;16.00;;;8.48;;
82873;SDS011;72647;51.622;7.540;2023-11-18T10:37:20;14.15;;;7.20;;
82873;SDS011;72647;51.622;7.540;2023-11-18T10:39:22;16.50;;;7.57;;
82873;SDS011;72647;51.622;7.540;2023-11-18T10:41:28;28.50;;;9.55;;
82873;SDS011;72647;51.622;7.540;2023-11-18T10:43:31;22.52;;;8.98;;
82873;SDS011;72647;51.622;7.540;2023-11-18T10:45:36;26.90;;;8.73;;
82873;SDS011;72647;51.622;7.540;2023-11-18T10:47:39;24.77;;;8.30;;
82873;SDS011;72647;51.622;7.540;2023-11-18T10:49:42;17.85;;;7.32;;
82873;SDS011;72647;51.622;7.540;2023-11-18T10:51:43;17.80;;;7.53;;
82873;SDS011;72647;51.622;7.540;2023-11-18T10:53:47;17.48;;;7.13;;
82873;SDS011;72647;51.622;7.540;2023-11-18T10:55:58;18.50;;;7.80;;
82873;SDS011;72647;51.622;7.540;2023-11-18T10:57:58;12.68;;;6.57;;
82873;SDS011;72647;51.622;7.540;2023-11-18T10:59:59;10.30;;;6.13;;
82873;SDS011;72647;51.622;7.540;2023-11-18T11:02:00;14.23;;;6.65;;
82873;SDS011;72647;51.622;7.540;2023-11-18T11:04:01;12.98;;;6.30;;
82873;SDS011;72647;51.622;7.540;2023-11-18T11:08:30;17.48;;;7.28;;
82873;SDS011;72647;51.622;7.540;2023-11-18T11:12:35;12.03;;;6.47;;
82873;SDS011;72647;51.622;7.540;2023-11-18T11:14:43;11.73;;;6.05;;
82873;SDS011;72647;51.622;7.540;2023-11-18T11:16:47;8.98;;;4.90;;
82873;SDS011;72647;51.622;7.540;2023-11-18T11:18:53;13.75;;;6.07;;
82873;SDS011;72647;51.622;7.540;2023-11-18T11:21:09;12.50;;;5.97;;
82873;SDS011;72647;51.622;7.540;2023-11-18T11:25:20;9.07;;;4.90;;
82873;SDS011;72647;51.622;7.540;2023-11-18T11:27:23;13.20;;;6.55;;
82873;SDS011;72647;51.622;7.540;2023-11-18T11:29:52;13.88;;;7.13;;
82873;SDS011;72647;51.622;7.540;2023-11-18T11:34:28;15.98;;;6.70;;
82873;SDS011;72647;51.622;7.540;2023-11-18T11:38:31;21.52;;;6.05;;
82873;SDS011;72647;51.622;7.540;2023-11-18T11:40:32;11.25;;;6.53;;
82873;SDS011;72647;51.622;7.540;2023-11-18T11:42:34;12.70;;;6.65;;
82873;SDS011;72647;51.622;7.540;2023-11-18T11:44:36;12.23;;;7.00;;
82873;SDS011;72647;51.622;7.540;2023-11-18T11:46:42;12.73;;;6.03;;
82873;SDS011;72647;51.622;7.540;2023-11-18T11:48:42;13.52;;;6.40;;
82873;SDS011;72647;51.622;7.540;2023-11-18T11:50:45;17.27;;;7.03;;
82873;SDS011;72647;51.622;7.540;2023-11-18T11:52:53;10.77;;;6.45;;
82873;SDS011;72647;51.622;7.540;2023-11-18T11:57:19;13.60;;;6.50;;
82873;SDS011;72647;51.622;7.540;2023-11-18T12:01:56;11.98;;;5.93;;
82873;SDS011;72647;51.622;7.540;2023-11-18T12:03:58;14.25;;;7.18;;
82873;SDS011;72647;51.622;7.540;2023-11-18T12:05:58;12.18;;;6.07;;
82873;SDS011;72647;51.622;7.540;2023-11-18T12:08:07;9.93;;;5.35;;
82873;SDS011;72647;51.622;7.540;2023-11-18T12:10:13;11.18;;;5.53;;
82873;SDS011;72647;51.622;7.540;2023-11-18T12:12:21;10.18;;;5.50;;
82873;SDS011;72647;51.622;7.540;2023-11-18T12:14:21;11.52;;;5.60;;
82873;SDS011;72647;51.622;7.540;2023-11-18T12:16:22;12.30;;;5.37;;
82873;SDS011;72647;51.622;7.540;2023-11-18T12:18:43;13.10;;;5.72;;
82873;SDS011;72647;51.622;7.540;2023-11-18T12:21:03;12.70;;;5.22;;
82873;SDS011;72647;51.622;7.540;2023-11-18T12:23:06;10.88;;;5.07;;
82873;SDS011;72647;51.622;7.540;2023-11-18T12:27:40;9.68;;;4.50;;
82873;SDS011;72647;51.622;7.540;2023-11-18T12:29:43;12.40;;;5.30;;